Terminal Aerodrome Forecast
Issued by NWS Charleston, WV

Current Version | Previous Version | Text Only | Print | Product List | Glossary Off
Versions: 1 2 3 4 5 6 7 8 9 10 11 12 13 14 15 16 17 18 19 20 21 22

731
FTUS41 KRLX 270901 AAA
TAFHTS
TAF AMD
KHTS 270901Z 2709/2806 16006KT P6SM SKC
     FM271400 18009G17KT P6SM BKN140
     FM271500 19010G20KT P6SM VCTS OVC040CB
      TEMPO 2715/2718 4SM SHRA OVC025
     FM271800 22008KT P6SM OVC035
     FM272300 26008KT P6SM BKN040
     FM280500 00000KT P6SM SCT250=

USA.gov is the U.S. government's official web portal to all federal, state and local government web resources and services.